sensor_id;sensor_type;location;lat;lon;timestamp;temperature;humidity
51557;DHT22;38766;53.194;5.532;2022-12-13T00:01:14;-0.60;99.90
51557;DHT22;38766;53.194;5.532;2022-12-13T00:03:41;-0.60;99.90
51557;DHT22;38766;53.194;5.532;2022-12-13T00:06:08;-0.60;99.90
51557;DHT22;38766;53.194;5.532;2022-12-13T00:08:34;-0.60;99.90
51557;DHT22;38766;53.194;5.532;2022-12-13T00:11:01;-0.60;99.90
51557;DHT22;38766;53.194;5.532;2022-12-13T00:13:28;-0.60;99.90
51557;DHT22;38766;53.194;5.532;2022-12-13T00:15:58;-0.70;99.90
51557;DHT22;38766;53.194;5.532;2022-12-13T00:18:25;-0.60;99.90
51557;DHT22;38766;53.194;5.532;2022-12-13T00:20:50;-0.70;99.90
51557;DHT22;38766;53.194;5.532;2022-12-13T00:23:16;-0.70;99.90
51557;DHT22;38766;53.194;5.532;2022-12-13T00:25:42;-0.80;99.90
51557;DHT22;38766;53.194;5.532;2022-12-13T00:28:08;-0.80;99.90
51557;DHT22;38766;53.194;5.532;2022-12-13T00:30:33;-0.80;99.90
51557;DHT22;38766;53.194;5.532;2022-12-13T00:32:59;-0.80;99.90
51557;DHT22;38766;53.194;5.532;2022-12-13T00:35:25;-0.80;99.90
51557;DHT22;38766;53.194;5.532;2022-12-13T00:37:51;-0.80;99.90
51557;DHT22;38766;53.194;5.532;2022-12-13T00:40:16;-0.80;99.90
51557;DHT22;38766;53.194;5.532;2022-12-13T00:42:42;-0.90;99.90
51557;DHT22;38766;53.194;5.532;2022-12-13T00:45:08;-1.00;99.90
51557;DHT22;38766;53.194;5.532;2022-12-13T00:47:34;-1.00;99.90
51557;DHT22;38766;53.194;5.532;2022-12-13T00:50:01;-1.00;99.90
51557;DHT22;38766;53.194;5.532;2022-12-13T00:52:26;-1.10;99.90
51557;DHT22;38766;53.194;5.532;2022-12-13T00:54:52;-1.00;99.90
51557;DHT22;38766;53.194;5.532;2022-12-13T00:57:18;-1.00;99.90
51557;DHT22;38766;53.194;5.532;2022-12-13T00:59:43;-1.00;99.90
51557;DHT22;38766;53.194;5.532;2022-12-13T01:02:09;-1.00;99.90
51557;DHT22;38766;53.194;5.532;2022-12-13T01:04:34;-1.00;99.90
51557;DHT22;38766;53.194;5.532;2022-12-13T01:07:00;-1.10;99.90
51557;DHT22;38766;53.194;5.532;2022-12-13T01:09:26;-1.00;99.90
51557;DHT22;38766;53.194;5.532;2022-12-13T01:12:03;-1.10;99.90
51557;DHT22;38766;53.194;5.532;2022-12-13T01:14:30;-1.10;99.90
51557;DHT22;38766;53.194;5.532;2022-12-13T01:16:56;-1.10;99.90
51557;DHT22;38766;53.194;5.532;2022-12-13T01:19:23;-1.10;99.90
51557;DHT22;38766;53.194;5.532;2022-12-13T01:21:52;-1.10;99.90
51557;DHT22;38766;53.194;5.532;2022-12-13T01:24:18;-1.10;99.90
51557;DHT22;38766;53.194;5.532;2022-12-13T01:26:45;-1.10;99.90
51557;DHT22;38766;53.194;5.532;2022-12-13T01:29:10;-1.10;99.90
51557;DHT22;38766;53.194;5.532;2022-12-13T01:31:36;-1.10;99.90
51557;DHT22;38766;53.194;5.532;2022-12-13T01:34:06;-1.10;99.90
51557;DHT22;38766;53.194;5.532;2022-12-13T01:36:35;-1.20;99.90
51557;DHT22;38766;53.194;5.532;2022-12-13T01:39:01;-1.20;99.90
51557;DHT22;38766;53.194;5.532;2022-12-13T01:41:28;-1.20;99.90
51557;DHT22;38766;53.194;5.532;2022-12-13T01:44:05;-1.20;99.90
51557;DHT22;38766;53.194;5.532;2022-12-13T01:46:33;-1.20;99.90
51557;DHT22;38766;53.194;5.532;2022-12-13T01:49:09;-1.20;99.90
51557;DHT22;38766;53.194;5.532;2022-12-13T01:51:41;-1.20;99.90
51557;DHT22;38766;53.194;5.532;2022-12-13T01:54:10;-1.20;99.90
51557;DHT22;38766;53.194;5.532;2022-12-13T01:56:40;-1.20;99.90
51557;DHT22;38766;53.194;5.532;2022-12-13T01:59:08;-1.20;99.90
51557;DHT22;38766;53.194;5.532;2022-12-13T02:01:35;-1.20;99.90
51557;DHT22;38766;53.194;5.532;2022-12-13T02:04:01;-1.30;99.90
51557;DHT22;38766;53.194;5.532;2022-12-13T02:06:35;-1.20;99.90
51557;DHT22;38766;53.194;5.532;2022-12-13T02:09:03;-1.20;99.90
51557;DHT22;38766;53.194;5.532;2022-12-13T02:11:29;-1.20;99.90
51557;DHT22;38766;53.194;5.532;2022-12-13T02:13:55;-1.20;99.90
51557;DHT22;38766;53.194;5.532;2022-12-13T02:16:33;-1.20;99.90
51557;DHT22;38766;53.194;5.532;2022-12-13T02:22:36;-1.20;99.90
51557;DHT22;38766;53.194;5.532;2022-12-13T02:25:43;-1.20;99.90
51557;DHT22;38766;53.194;5.532;2022-12-13T02:28:34;-1.20;99.90
51557;DHT22;38766;53.194;5.532;2022-12-13T02:31:22;-1.20;99.90
51557;DHT22;38766;53.194;5.532;2022-12-13T02:36:36;-1.20;99.90
51557;DHT22;38766;53.194;5.532;2022-12-13T02:39:21;-1.10;99.90
51557;DHT22;38766;53.194;5.532;2022-12-13T02:41:49;-1.20;99.90
51557;DHT22;38766;53.194;5.532;2022-12-13T02:44:33;-1.20;99.90
51557;DHT22;38766;53.194;5.532;2022-12-13T02:47:12;-1.20;99.90
51557;DHT22;38766;53.194;5.532;2022-12-13T02:49:41;-1.20;99.90
51557;DHT22;38766;53.194;5.532;2022-12-13T02:52:09;-1.20;99.90
51557;DHT22;38766;53.194;5.532;2022-12-13T02:54:36;-1.20;99.90
51557;DHT22;38766;53.194;5.532;2022-12-13T02:57:02;-1.20;99.90
51557;DHT22;38766;53.194;5.532;2022-12-13T02:59:33;-1.30;99.90
51557;DHT22;38766;53.194;5.532;2022-12-13T03:04:48;-1.30;99.90
51557;DHT22;38766;53.194;5.532;2022-12-13T03:10:17;-1.30;99.90
51557;DHT22;38766;53.194;5.532;2022-12-13T03:12:51;-1.30;99.90
51557;DHT22;38766;53.194;5.532;2022-12-13T03:15:45;-1.30;99.90
51557;DHT22;38766;53.194;5.532;2022-12-13T03:18:18;-1.30;99.90
51557;DHT22;38766;53.194;5.532;2022-12-13T03:20:47;-1.30;99.90
51557;DHT22;38766;53.194;5.532;2022-12-13T03:23:14;-1.30;99.90
51557;DHT22;38766;53.194;5.532;2022-12-13T03:25:40;-1.30;99.90
51557;DHT22;38766;53.194;5.532;2022-12-13T03:28:05;-1.20;99.90
51557;DHT22;38766;53.194;5.532;2022-12-13T03:30:40;-1.20;99.90
51557;DHT22;38766;53.194;5.532;2022-12-13T03:33:06;-1.10;99.90
51557;DHT22;38766;53.194;5.532;2022-12-13T03:35:32;-1.10;99.90
51557;DHT22;38766;53.194;5.532;2022-12-13T03:37:58;-1.00;99.90
51557;DHT22;38766;53.194;5.532;2022-12-13T03:40:26;-1.00;99.90
51557;DHT22;38766;53.194;5.532;2022-12-13T03:42:53;-1.00;99.90
51557;DHT22;38766;53.194;5.532;2022-12-13T03:45:19;-0.90;99.90
51557;DHT22;38766;53.194;5.532;2022-12-13T03:47:45;-0.90;99.90
51557;DHT22;38766;53.194;5.532;2022-12-13T03:50:11;-0.90;99.90
51557;DHT22;38766;53.194;5.532;2022-12-13T03:52:37;-0.90;99.90
51557;DHT22;38766;53.194;5.532;2022-12-13T03:55:02;-0.90;99.90
51557;DHT22;38766;53.194;5.532;2022-12-13T03:57:28;-0.80;99.90
51557;DHT22;38766;53.194;5.532;2022-12-13T03:59:54;-0.80;99.90
51557;DHT22;38766;53.194;5.532;2022-12-13T04:02:19;-0.90;99.90
51557;DHT22;38766;53.194;5.532;2022-12-13T04:04:45;-0.90;99.90
51557;DHT22;38766;53.194;5.532;2022-12-13T04:07:11;-0.90;99.90
51557;DHT22;38766;53.194;5.532;2022-12-13T04:09:37;-0.90;99.90
51557;DHT22;38766;53.194;5.532;2022-12-13T04:12:03;-0.90;99.90
51557;DHT22;38766;53.194;5.532;2022-12-13T04:14:47;-0.90;99.90
51557;DHT22;38766;53.194;5.532;2022-12-13T04:17:13;-0.90;99.90
51557;DHT22;38766;53.194;5.532;2022-12-13T04:19:38;-0.90;99.90
51557;DHT22;38766;53.194;5.532;2022-12-13T04:22:04;-1.00;99.90
51557;DHT22;38766;53.194;5.532;2022-12-13T04:24:30;-1.00;99.90
51557;DHT22;38766;53.194;5.532;2022-12-13T04:26:55;-1.00;99.90
51557;DHT22;38766;53.194;5.532;2022-12-13T04:29:21;-1.00;99.90
51557;DHT22;38766;53.194;5.532;2022-12-13T04:31:46;-1.10;99.90
51557;DHT22;38766;53.194;5.532;2022-12-13T04:34:12;-1.10;99.90
51557;DHT22;38766;53.194;5.532;2022-12-13T04:36:38;-1.10;99.90
51557;DHT22;38766;53.194;5.532;2022-12-13T04:39:04;-1.10;99.90
51557;DHT22;38766;53.194;5.532;2022-12-13T04:41:37;-1.10;99.90
51557;DHT22;38766;53.194;5.532;2022-12-13T04:44:04;-1.10;99.90
51557;DHT22;38766;53.194;5.532;2022-12-13T04:46:30;-1.10;99.90
51557;DHT22;38766;53.194;5.532;2022-12-13T04:48:56;-1.10;99.90
51557;DHT22;38766;53.194;5.532;2022-12-13T04:51:21;-1.10;99.90
51557;DHT22;38766;53.194;5.532;2022-12-13T04:53:47;-1.10;99.90
51557;DHT22;38766;53.194;5.532;2022-12-13T04:56:13;-1.20;99.90
51557;DHT22;38766;53.194;5.532;2022-12-13T04:58:38;-1.10;99.90
51557;DHT22;38766;53.194;5.532;2022-12-13T05:01:08;-1.20;99.90
51557;DHT22;38766;53.194;5.532;2022-12-13T05:03:34;-1.20;99.90
51557;DHT22;38766;53.194;5.532;2022-12-13T05:06:07;-1.20;99.90
51557;DHT22;38766;53.194;5.532;2022-12-13T05:08:33;-1.10;99.90
51557;DHT22;38766;53.194;5.532;2022-12-13T05:11:00;-1.20;99.90
51557;DHT22;38766;53.194;5.532;2022-12-13T05:13:26;-1.20;99.90
51557;DHT22;38766;53.194;5.532;2022-12-13T05:15:59;-1.20;99.90
51557;DHT22;38766;53.194;5.532;2022-12-13T05:18:25;-1.20;99.90
51557;DHT22;38766;53.194;5.532;2022-12-13T05:20:51;-1.10;99.90
51557;DHT22;38766;53.194;5.532;2022-12-13T05:23:21;-1.10;99.90
51557;DHT22;38766;53.194;5.532;2022-12-13T05:25:47;-1.10;99.90
51557;DHT22;38766;53.194;5.532;2022-12-13T05:28:13;-1.10;99.90
51557;DHT22;38766;53.194;5.532;2022-12-13T05:30:42;-1.10;99.90
51557;DHT22;38766;53.194;5.532;2022-12-13T05:33:09;-1.10;99.90
51557;DHT22;38766;53.194;5.532;2022-12-13T05:35:35;-1.10;99.90
51557;DHT22;38766;53.194;5.532;2022-12-13T05:38:00;-1.20;99.90
51557;DHT22;38766;53.194;5.532;2022-12-13T05:40:27;-1.20;99.90
51557;DHT22;38766;53.194;5.532;2022-12-13T05:42:54;-1.20;99.90
51557;DHT22;38766;53.194;5.532;2022-12-13T05:45:20;-1.20;99.90
51557;DHT22;38766;53.194;5.532;2022-12-13T05:47:46;-1.20;99.90
51557;DHT22;38766;53.194;5.532;2022-12-13T05:50:13;-1.20;99.90
51557;DHT22;38766;53.194;5.532;2022-12-13T05:52:39;-1.20;99.90
51557;DHT22;38766;53.194;5.532;2022-12-13T05:55:06;-1.20;99.90
51557;DHT22;38766;53.194;5.532;2022-12-13T05:57:32;-1.20;99.90
51557;DHT22;38766;53.194;5.532;2022-12-13T05:59:58;-1.20;99.90
51557;DHT22;38766;53.194;5.532;2022-12-13T06:02:23;-1.20;99.90
51557;DHT22;38766;53.194;5.532;2022-12-13T06:04:49;-1.20;99.90
51557;DHT22;38766;53.194;5.532;2022-12-13T06:07:15;-1.20;99.90
51557;DHT22;38766;53.194;5.532;2022-12-13T06:09:40;-1.20;99.90
51557;DHT22;38766;53.194;5.532;2022-12-13T06:12:06;-1.20;99.90
51557;DHT22;38766;53.194;5.532;2022-12-13T06:14:34;-1.10;99.90
51557;DHT22;38766;53.194;5.532;2022-12-13T06:16:59;-1.20;99.90
51557;DHT22;38766;53.194;5.532;2022-12-13T06:19:25;-1.20;99.90
51557;DHT22;38766;53.194;5.532;2022-12-13T06:21:52;-1.20;99.90
51557;DHT22;38766;53.194;5.532;2022-12-13T06:24:20;-1.20;99.90
51557;DHT22;38766;53.194;5.532;2022-12-13T06:26:46;-1.20;99.90
51557;DHT22;38766;53.194;5.532;2022-12-13T06:29:14;-1.20;99.90
51557;DHT22;38766;53.194;5.532;2022-12-13T06:31:39;-1.20;99.90
51557;DHT22;38766;53.194;5.532;2022-12-13T06:34:05;-1.20;99.90
51557;DHT22;38766;53.194;5.532;2022-12-13T06:36:30;-1.20;99.90
51557;DHT22;38766;53.194;5.532;2022-12-13T06:39:01;-1.20;99.90
51557;DHT22;38766;53.194;5.532;2022-12-13T06:41:26;-1.20;99.90
51557;DHT22;38766;53.194;5.532;2022-12-13T06:43:52;-1.20;99.90
51557;DHT22;38766;53.194;5.532;2022-12-13T06:46:20;-1.20;99.90
51557;DHT22;38766;53.194;5.532;2022-12-13T06:48:52;-1.20;99.90
51557;DHT22;38766;53.194;5.532;2022-12-13T06:51:18;-1.20;99.90
51557;DHT22;38766;53.194;5.532;2022-12-13T06:53:43;-1.20;99.90
51557;DHT22;38766;53.194;5.532;2022-12-13T06:56:11;-1.30;99.90
51557;DHT22;38766;53.194;5.532;2022-12-13T06:58:37;-1.30;99.90
51557;DHT22;38766;53.194;5.532;2022-12-13T07:01:14;-1.40;99.90
51557;DHT22;38766;53.194;5.532;2022-12-13T07:03:40;-1.30;99.90
51557;DHT22;38766;53.194;5.532;2022-12-13T07:06:12;-1.30;99.90
51557;DHT22;38766;53.194;5.532;2022-12-13T07:08:42;-1.40;99.90
51557;DHT22;38766;53.194;5.532;2022-12-13T07:11:13;-1.40;99.90
51557;DHT22;38766;53.194;5.532;2022-12-13T07:13:39;-1.40;99.90
51557;DHT22;38766;53.194;5.532;2022-12-13T07:16:05;-1.40;99.90
51557;DHT22;38766;53.194;5.532;2022-12-13T07:18:31;-1.40;99.90
51557;DHT22;38766;53.194;5.532;2022-12-13T07:20:56;-1.40;99.90
51557;DHT22;38766;53.194;5.532;2022-12-13T07:23:22;-1.40;99.90
51557;DHT22;38766;53.194;5.532;2022-12-13T07:25:54;-1.40;99.90
51557;DHT22;38766;53.194;5.532;2022-12-13T07:28:20;-1.40;99.90
51557;DHT22;38766;53.194;5.532;2022-12-13T07:30:47;-1.50;99.90
51557;DHT22;38766;53.194;5.532;2022-12-13T07:33:13;-1.40;99.90
51557;DHT22;38766;53.194;5.532;2022-12-13T07:35:39;-1.50;99.90
51557;DHT22;38766;53.194;5.532;2022-12-13T07:38:06;-1.50;99.90
51557;DHT22;38766;53.194;5.532;2022-12-13T07:40:36;-1.40;99.90
51557;DHT22;38766;53.194;5.532;2022-12-13T07:43:02;-1.50;99.90
51557;DHT22;38766;53.194;5.532;2022-12-13T07:45:28;-1.40;99.90
51557;DHT22;38766;53.194;5.532;2022-12-13T07:47:53;-1.40;99.90
51557;DHT22;38766;53.194;5.532;2022-12-13T07:50:20;-1.40;99.90
51557;DHT22;38766;53.194;5.532;2022-12-13T07:52:49;-1.40;99.90
51557;DHT22;38766;53.194;5.532;2022-12-13T07:55:16;-1.50;99.90
51557;DHT22;38766;53.194;5.532;2022-12-13T07:57:43;-1.40;99.90
51557;DHT22;38766;53.194;5.532;2022-12-13T08:00:09;-1.40;99.90
51557;DHT22;38766;53.194;5.532;2022-12-13T08:02:35;-1.40;99.90
51557;DHT22;38766;53.194;5.532;2022-12-13T08:05:00;-1.40;99.90
51557;DHT22;38766;53.194;5.532;2022-12-13T08:07:26;-1.40;99.90
51557;DHT22;38766;53.194;5.532;2022-12-13T08:09:51;-1.40;99.90
51557;DHT22;38766;53.194;5.532;2022-12-13T08:12:17;-1.40;99.90
51557;DHT22;38766;53.194;5.532;2022-12-13T08:14:43;-1.40;99.90
51557;DHT22;38766;53.194;5.532;2022-12-13T08:17:08;-1.40;99.90
51557;DHT22;38766;53.194;5.532;2022-12-13T08:19:34;-1.40;99.90
51557;DHT22;38766;53.194;5.532;2022-12-13T08:21:59;-1.40;99.90
51557;DHT22;38766;53.194;5.532;2022-12-13T08:24:27;-1.40;99.90
51557;DHT22;38766;53.194;5.532;2022-12-13T08:26:54;-1.40;99.90
51557;DHT22;38766;53.194;5.532;2022-12-13T08:29:21;-1.40;99.90
51557;DHT22;38766;53.194;5.532;2022-12-13T08:31:47;-1.40;99.90
51557;DHT22;38766;53.194;5.532;2022-12-13T08:34:12;-1.40;99.90
51557;DHT22;38766;53.194;5.532;2022-12-13T08:36:39;-1.40;99.90
51557;DHT22;38766;53.194;5.532;2022-12-13T08:39:04;-1.40;99.90
51557;DHT22;38766;53.194;5.532;2022-12-13T08:41:30;-1.40;99.90
51557;DHT22;38766;53.194;5.532;2022-12-13T08:43:56;-1.40;99.90
51557;DHT22;38766;53.194;5.532;2022-12-13T08:46:21;-1.40;99.90
51557;DHT22;38766;53.194;5.532;2022-12-13T08:48:47;-1.40;99.90
51557;DHT22;38766;53.194;5.532;2022-12-13T08:51:13;-1.40;99.90
51557;DHT22;38766;53.194;5.532;2022-12-13T08:53:40;-1.30;99.90
51557;DHT22;38766;53.194;5.532;2022-12-13T08:56:10;-1.30;99.90
51557;DHT22;38766;53.194;5.532;2022-12-13T08:58:37;-1.30;99.90
51557;DHT22;38766;53.194;5.532;2022-12-13T09:01:07;-1.20;99.90
51557;DHT22;38766;53.194;5.532;2022-12-13T09:03:33;-1.20;99.90
51557;DHT22;38766;53.194;5.532;2022-12-13T09:06:09;-1.10;99.90
51557;DHT22;38766;53.194;5.532;2022-12-13T09:08:35;-1.00;99.90
51557;DHT22;38766;53.194;5.532;2022-12-13T09:11:02;-1.00;99.90
51557;DHT22;38766;53.194;5.532;2022-12-13T09:13:30;-0.90;99.90
51557;DHT22;38766;53.194;5.532;2022-12-13T09:15:56;-0.90;99.90
51557;DHT22;38766;53.194;5.532;2022-12-13T09:18:23;-0.80;99.90
51557;DHT22;38766;53.194;5.532;2022-12-13T09:20:48;-0.60;99.90
51557;DHT22;38766;53.194;5.532;2022-12-13T09:23:20;-0.50;99.90
51557;DHT22;38766;53.194;5.532;2022-12-13T09:25:52;-0.30;99.90
51557;DHT22;38766;53.194;5.532;2022-12-13T09:28:19;-0.10;99.90
51557;DHT22;38766;53.194;5.532;2022-12-13T09:30:44;0.10;99.90
51557;DHT22;38766;53.194;5.532;2022-12-13T09:33:10;0.40;99.90
51557;DHT22;38766;53.194;5.532;2022-12-13T09:35:37;0.50;99.90
51557;DHT22;38766;53.194;5.532;2022-12-13T09:38:03;0.60;99.90
51557;DHT22;38766;53.194;5.532;2022-12-13T09:40:28;0.60;99.90
51557;DHT22;38766;53.194;5.532;2022-12-13T09:42:56;0.60;99.90
51557;DHT22;38766;53.194;5.532;2022-12-13T09:45:23;0.50;99.90
51557;DHT22;38766;53.194;5.532;2022-12-13T09:47:50;0.50;99.90
51557;DHT22;38766;53.194;5.532;2022-12-13T09:52:49;0.40;99.90
51557;DHT22;38766;53.194;5.532;2022-12-13T09:55:25;0.40;99.90
51557;DHT22;38766;53.194;5.532;2022-12-13T09:57:54;0.40;99.90
51557;DHT22;38766;53.194;5.532;2022-12-13T10:00:23;0.40;99.90
51557;DHT22;38766;53.194;5.532;2022-12-13T10:02:55;0.40;99.90
51557;DHT22;38766;53.194;5.532;2022-12-13T10:05:31;0.50;99.90
51557;DHT22;38766;53.194;5.532;2022-12-13T10:08:13;0.50;99.90
51557;DHT22;38766;53.194;5.532;2022-12-13T10:10:39;0.50;99.90
51557;DHT22;38766;53.194;5.532;2022-12-13T10:13:22;0.50;99.90
51557;DHT22;38766;53.194;5.532;2022-12-13T10:15:54;0.60;99.90
51557;DHT22;38766;53.194;5.532;2022-12-13T10:18:33;0.60;99.90
51557;DHT22;38766;53.194;5.532;2022-12-13T10:21:02;0.70;99.90
51557;DHT22;38766;53.194;5.532;2022-12-13T10:23:29;0.90;99.90
51557;DHT22;38766;53.194;5.532;2022-12-13T10:25:55;1.20;99.90
51557;DHT22;38766;53.194;5.532;2022-12-13T10:28:28;1.50;99.90
51557;DHT22;38766;53.194;5.532;2022-12-13T10:30:54;1.90;99.90
51557;DHT22;38766;53.194;5.532;2022-12-13T10:33:32;2.10;99.90
51557;DHT22;38766;53.194;5.532;2022-12-13T10:38:34;2.70;99.90
51557;DHT22;38766;53.194;5.532;2022-12-13T10:41:00;3.00;99.90
51557;DHT22;38766;53.194;5.532;2022-12-13T10:43:26;3.20;99.90
51557;DHT22;38766;53.194;5.532;2022-12-13T10:45:56;3.40;99.90
51557;DHT22;38766;53.194;5.532;2022-12-13T10:51:11;3.70;99.90
51557;DHT22;38766;53.194;5.532;2022-12-13T10:53:52;3.80;99.90
51557;DHT22;38766;53.194;5.532;2022-12-13T10:56:20;3.90;99.90
51557;DHT22;38766;53.194;5.532;2022-12-13T10:58:49;4.00;99.90
51557;DHT22;38766;53.194;5.532;2022-12-13T11:01:19;4.10;99.90
51557;DHT22;38766;53.194;5.532;2022-12-13T11:04:04;4.20;99.90
51557;DHT22;38766;53.194;5.532;2022-12-13T11:06:41;4.30;99.90
51557;DHT22;38766;53.194;5.532;2022-12-13T11:11:40;4.30;99.90
51557;DHT22;38766;53.194;5.532;2022-12-13T11:14:16;4.40;99.90
51557;DHT22;38766;53.194;5.532;2022-12-13T11:16:44;4.40;99.90
51557;DHT22;38766;53.194;5.532;2022-12-13T11:19:29;4.50;99.90
51557;DHT22;38766;53.194;5.532;2022-12-13T11:21:57;4.50;99.90
51557;DHT22;38766;53.194;5.532;2022-12-13T11:24:35;4.50;99.90
51557;DHT22;38766;53.194;5.532;2022-12-13T11:27:42;4.60;99.90
51557;DHT22;38766;53.194;5.532;2022-12-13T11:30:23;4.60;99.90
51557;DHT22;38766;53.194;5.532;2022-12-13T11:33:13;4.50;99.90
51557;DHT22;38766;53.194;5.532;2022-12-13T11:38:33;4.60;99.90
51557;DHT22;38766;53.194;5.532;2022-12-13T11:41:42;4.50;99.90
51557;DHT22;38766;53.194;5.532;2022-12-13T11:46:41;4.50;99.90
51557;DHT22;38766;53.194;5.532;2022-12-13T11:55:04;4.30;99.90
51557;DHT22;38766;53.194;5.532;2022-12-13T12:00:33;4.10;99.90
51557;DHT22;38766;53.194;5.532;2022-12-13T12:03:16;4.00;99.90
51557;DHT22;38766;53.194;5.532;2022-12-13T12:05:49;3.90;99.90
51557;DHT22;38766;53.194;5.532;2022-12-13T12:08:37;3.80;99.90
51557;DHT22;38766;53.194;5.532;2022-12-13T12:11:11;3.90;99.90
51557;DHT22;38766;53.194;5.532;2022-12-13T12:13:46;3.90;99.90
51557;DHT22;38766;53.194;5.532;2022-12-13T12:16:27;3.80;99.90
51557;DHT22;38766;53.194;5.532;2022-12-13T12:18:55;3.80;99.90
51557;DHT22;38766;53.194;5.532;2022-12-13T12:26:41;3.90;99.90
51557;DHT22;38766;53.194;5.532;2022-12-13T12:29:51;3.90;99.90
51557;DHT22;38766;53.194;5.532;2022-12-13T12:37:52;3.70;99.90
51557;DHT22;38766;53.194;5.532;2022-12-13T12:40:43;3.60;99.90
51557;DHT22;38766;53.194;5.532;2022-12-13T12:43:12;3.60;99.90
51557;DHT22;38766;53.194;5.532;2022-12-13T12:46:02;3.60;99.90
51557;DHT22;38766;53.194;5.532;2022-12-13T12:48:44;3.60;99.90
51557;DHT22;38766;53.194;5.532;2022-12-13T12:56:41;3.40;99.90
51557;DHT22;38766;53.194;5.532;2022-12-13T12:59:30;3.40;99.90
51557;DHT22;38766;53.194;5.532;2022-12-13T13:02:16;3.40;99.90
51557;DHT22;38766;53.194;5.532;2022-12-13T13:04:52;3.40;99.90
51557;DHT22;38766;53.194;5.532;2022-12-13T13:07:28;3.30;99.90
51557;DHT22;38766;53.194;5.532;2022-12-13T13:09:56;3.20;99.90
51557;DHT22;38766;53.194;5.532;2022-12-13T13:12:24;3.20;99.90
51557;DHT22;38766;53.194;5.532;2022-12-13T13:14:50;3.20;99.90
51557;DHT22;38766;53.194;5.532;2022-12-13T13:19:55;3.10;99.90
51557;DHT22;38766;53.194;5.532;2022-12-13T13:22:36;3.10;99.90
51557;DHT22;38766;53.194;5.532;2022-12-13T13:27:34;3.10;99.90
51557;DHT22;38766;53.194;5.532;2022-12-13T13:32:42;3.10;99.90
51557;DHT22;38766;53.194;5.532;2022-12-13T13:37:55;3.10;99.90
51557;DHT22;38766;53.194;5.532;2022-12-13T13:40:31;3.10;99.90
51557;DHT22;38766;53.194;5.532;2022-12-13T14:05:38;2.70;99.90
51557;DHT22;38766;53.194;5.532;2022-12-13T14:11:36;2.60;99.90
51557;DHT22;38766;53.194;5.532;2022-12-13T14:18:09;2.50;99.90
51557;DHT22;38766;53.194;5.532;2022-12-13T14:31:35;2.30;99.90
51557;DHT22;38766;53.194;5.532;2022-12-13T14:34:03;2.20;99.90
51557;DHT22;38766;53.194;5.532;2022-12-13T14:36:30;2.10;99.90
51557;DHT22;38766;53.194;5.532;2022-12-13T14:39:13;2.00;99.90
51557;DHT22;38766;53.194;5.532;2022-12-13T14:41:45;2.00;99.90
51557;DHT22;38766;53.194;5.532;2022-12-13T14:44:21;1.90;99.90
51557;DHT22;38766;53.194;5.532;2022-12-13T14:49:25;1.80;99.90
51557;DHT22;38766;53.194;5.532;2022-12-13T14:52:15;1.70;99.90
51557;DHT22;38766;53.194;5.532;2022-12-13T14:54:46;1.60;99.90
51557;DHT22;38766;53.194;5.532;2022-12-13T14:57:18;1.60;99.90
51557;DHT22;38766;53.194;5.532;2022-12-13T14:59:50;1.50;99.90
51557;DHT22;38766;53.194;5.532;2022-12-13T15:02:20;1.50;99.90
51557;DHT22;38766;53.194;5.532;2022-12-13T15:04:46;1.40;99.90
51557;DHT22;38766;53.194;5.532;2022-12-13T15:07:29;1.40;99.90
51557;DHT22;38766;53.194;5.532;2022-12-13T15:09:59;1.40;99.90
51557;DHT22;38766;53.194;5.532;2022-12-13T15:12:26;1.30;99.90
51557;DHT22;38766;53.194;5.532;2022-12-13T15:14:58;1.30;99.90
51557;DHT22;38766;53.194;5.532;2022-12-13T15:17:29;1.30;99.90
51557;DHT22;38766;53.194;5.532;2022-12-13T15:19:55;1.20;99.90
51557;DHT22;38766;53.194;5.532;2022-12-13T15:22:21;1.10;99.90
51557;DHT22;38766;53.194;5.532;2022-12-13T15:24:47;1.10;99.90
51557;DHT22;38766;53.194;5.532;2022-12-13T15:27:18;1.00;99.90
51557;DHT22;38766;53.194;5.532;2022-12-13T15:29:47;1.00;99.90
51557;DHT22;38766;53.194;5.532;2022-12-13T15:32:17;0.90;99.90
51557;DHT22;38766;53.194;5.532;2022-12-13T15:34:45;0.80;99.90
51557;DHT22;38766;53.194;5.532;2022-12-13T15:37:21;0.80;99.90
51557;DHT22;38766;53.194;5.532;2022-12-13T15:39:48;0.70;99.90
51557;DHT22;38766;53.194;5.532;2022-12-13T15:44:50;0.70;99.90
51557;DHT22;38766;53.194;5.532;2022-12-13T15:47:19;0.70;99.90
51557;DHT22;38766;53.194;5.532;2022-12-13T15:49:57;0.70;99.90
51557;DHT22;38766;53.194;5.532;2022-12-13T15:52:34;0.60;99.90
51557;DHT22;38766;53.194;5.532;2022-12-13T15:57:48;0.60;99.90
51557;DHT22;38766;53.194;5.532;2022-12-13T16:05:40;0.40;99.90
51557;DHT22;38766;53.194;5.532;2022-12-13T16:08:37;0.40;99.90
51557;DHT22;38766;53.194;5.532;2022-12-13T16:11:05;0.40;99.90
51557;DHT22;38766;53.194;5.532;2022-12-13T16:13:34;0.40;99.90
51557;DHT22;38766;53.194;5.532;2022-12-13T16:18:56;0.30;99.90
51557;DHT22;38766;53.194;5.532;2022-12-13T16:21:24;0.30;99.90
51557;DHT22;38766;53.194;5.532;2022-12-13T16:23:50;0.30;99.90
51557;DHT22;38766;53.194;5.532;2022-12-13T16:26:24;0.30;99.90
51557;DHT22;38766;53.194;5.532;2022-12-13T16:28:50;0.20;99.90
51557;DHT22;38766;53.194;5.532;2022-12-13T16:31:19;0.20;99.90
51557;DHT22;38766;53.194;5.532;2022-12-13T16:33:46;0.20;99.90
51557;DHT22;38766;53.194;5.532;2022-12-13T16:36:11;0.20;99.90
51557;DHT22;38766;53.194;5.532;2022-12-13T16:38:37;0.20;99.90
51557;DHT22;38766;53.194;5.532;2022-12-13T16:41:04;0.10;99.90
51557;DHT22;38766;53.194;5.532;2022-12-13T16:43:33;0.10;99.90
51557;DHT22;38766;53.194;5.532;2022-12-13T16:45:59;0.10;99.90
51557;DHT22;38766;53.194;5.532;2022-12-13T16:48:28;0.10;99.90
51557;DHT22;38766;53.194;5.532;2022-12-13T16:50:53;0.00;99.90
51557;DHT22;38766;53.194;5.532;2022-12-13T16:53:19;0.00;99.90
51557;DHT22;38766;53.194;5.532;2022-12-13T16:55:45;0.00;99.90
51557;DHT22;38766;53.194;5.532;2022-12-13T16:58:13;0.00;99.90
51557;DHT22;38766;53.194;5.532;2022-12-13T17:00:40;0.00;99.90
51557;DHT22;38766;53.194;5.532;2022-12-13T17:03:06;0.00;99.90
51557;DHT22;38766;53.194;5.532;2022-12-13T17:05:33;0.00;99.90
51557;DHT22;38766;53.194;5.532;2022-12-13T17:07:59;0.00;99.90
51557;DHT22;38766;53.194;5.532;2022-12-13T17:10:25;0.00;99.90
51557;DHT22;38766;53.194;5.532;2022-12-13T17:12:52;0.00;99.90
51557;DHT22;38766;53.194;5.532;2022-12-13T17:15:18;0.00;99.90
51557;DHT22;38766;53.194;5.532;2022-12-13T17:17:45;0.00;99.90
51557;DHT22;38766;53.194;5.532;2022-12-13T17:20:14;0.00;99.90
51557;DHT22;38766;53.194;5.532;2022-12-13T17:22:40;0.00;99.90
51557;DHT22;38766;53.194;5.532;2022-12-13T17:25:07;0.10;99.90
51557;DHT22;38766;53.194;5.532;2022-12-13T17:27:33;0.10;99.90
51557;DHT22;38766;53.194;5.532;2022-12-13T17:29:59;0.20;99.90
51557;DHT22;38766;53.194;5.532;2022-12-13T17:32:26;0.20;99.90
51557;DHT22;38766;53.194;5.532;2022-12-13T17:34:52;0.20;99.90
51557;DHT22;38766;53.194;5.532;2022-12-13T17:37:18;0.20;99.90
51557;DHT22;38766;53.194;5.532;2022-12-13T17:39:43;0.20;99.90
51557;DHT22;38766;53.194;5.532;2022-12-13T17:42:09;0.20;99.90
51557;DHT22;38766;53.194;5.532;2022-12-13T17:44:35;0.20;99.90
51557;DHT22;38766;53.194;5.532;2022-12-13T17:47:01;0.20;99.90
51557;DHT22;38766;53.194;5.532;2022-12-13T17:49:27;0.20;99.90
51557;DHT22;38766;53.194;5.532;2022-12-13T17:51:53;0.10;99.90